createdAt,value
2019-01-23T00:02:03.235Z,43.97
2019-01-23T00:04:33.550Z,42.70
2019-01-23T00:07:03.962Z,43.80
2019-01-23T00:09:37.382Z,42.70
2019-01-23T00:12:07.882Z,44.43
2019-01-23T00:14:38.193Z,41.50
2019-01-23T00:17:08.636Z,40.47
2019-01-23T00:19:40.539Z,44.47
2019-01-23T00:22:12.782Z,43.35
2019-01-23T00:24:44.805Z,42.83
2019-01-23T00:27:15.328Z,41.70
2019-01-23T00:29:45.600Z,41.57
2019-01-23T00:32:16.038Z,42.60
2019-01-23T00:34:46.348Z,37.90
2019-01-23T00:37:16.752Z,44.03
2019-01-23T00:39:47.167Z,41.90
2019-01-23T00:42:17.581Z,39.15
2019-01-23T00:44:50.768Z,44.05
2019-01-23T00:47:21.139Z,45.50
2019-01-23T00:49:51.509Z,42.60
2019-01-23T00:52:21.924Z,43.07
2019-01-23T00:54:52.401Z,44.20
2019-01-23T00:57:22.877Z,44.33
2019-01-23T00:59:53.289Z,44.37
2019-01-23T01:02:23.665Z,42.37
2019-01-23T01:04:54.023Z,40.40
2019-01-23T01:07:24.442Z,37.27
2019-01-23T01:09:54.871Z,41.63
2019-01-23T01:12:26.937Z,38.50
2019-01-23T01:14:57.231Z,41.87
2019-01-23T01:17:29.348Z,44.00
2019-01-23T01:19:59.692Z,42.97
2019-01-23T01:22:30.209Z,41.10
2019-01-23T01:25:02.654Z,37.67
2019-01-23T01:27:34.196Z,40.20
2019-01-23T01:30:06.133Z,40.50
2019-01-23T01:32:39.512Z,42.07
2019-01-23T01:35:10.243Z,41.50
2019-01-23T01:37:43.500Z,39.23
2019-01-23T01:40:19.306Z,39.60
2019-01-23T01:42:52.634Z,39.00
2019-01-23T01:45:23.127Z,42.10
2019-01-23T01:47:53.595Z,42.57
2019-01-23T01:50:24.068Z,39.90
2019-01-23T01:52:54.583Z,43.30
2019-01-23T01:55:24.948Z,36.20
2019-01-23T01:58:00.660Z,42.33
2019-01-23T02:00:34.718Z,42.63
2019-01-23T02:03:05.132Z,38.70
2019-01-23T02:05:35.566Z,41.83
2019-01-23T02:08:07.460Z,42.86
2019-01-23T02:10:38.087Z,43.63
2019-01-23T02:13:08.789Z,39.07
2019-01-23T02:15:39.327Z,40.67
2019-01-23T02:18:12.779Z,42.70
2019-01-23T02:20:43.331Z,40.20
2019-01-23T02:23:13.786Z,43.25
2019-01-23T02:25:44.312Z,42.97
2019-01-23T02:28:14.729Z,42.98
2019-01-23T02:30:48.319Z,43.33
2019-01-23T02:33:21.803Z,38.33
2019-01-23T02:35:52.355Z,43.30
2019-01-23T02:38:22.841Z,39.92
2019-01-23T02:40:53.420Z,41.17
2019-01-23T02:43:23.916Z,42.03
2019-01-23T02:45:54.334Z,40.77
2019-01-23T02:48:24.778Z,43.30
2019-01-23T02:50:57.608Z,42.93
2019-01-23T02:53:27.961Z,42.93
2019-01-23T02:56:01.182Z,43.40
2019-01-23T02:58:31.721Z,42.03
2019-01-23T03:01:02.068Z,41.00
2019-01-23T03:16:38.772Z,44.27
2019-01-23T03:19:13.616Z,42.10
2019-01-23T03:21:44.075Z,39.47
2019-01-23T03:24:14.379Z,42.03
2019-01-23T03:26:44.681Z,42.77
2019-01-23T03:29:14.993Z,41.13
2019-01-23T03:31:45.317Z,42.30
2019-01-23T03:34:17.361Z,42.10
2019-01-23T03:36:49.003Z,38.97
2019-01-23T03:39:19.376Z,42.93
2019-01-23T03:41:49.716Z,45.93
2019-01-23T03:44:20.139Z,43.78
2019-01-23T03:46:50.789Z,42.67
2019-01-23T03:49:21.205Z,39.17
2019-01-23T03:51:51.740Z,43.27
2019-01-23T03:54:32.778Z,44.38
2019-01-23T03:57:03.504Z,44.60
2019-01-23T03:59:33.915Z,41.42
2019-01-23T04:02:04.410Z,44.93
2019-01-23T04:04:34.832Z,45.10
2019-01-23T04:07:05.336Z,46.33
2019-01-23T04:09:39.630Z,44.03
2019-01-23T04:12:11.641Z,44.50
2019-01-23T04:14:41.915Z,43.03
2019-01-23T04:17:12.484Z,45.12
2019-01-23T04:19:42.859Z,39.27
2019-01-23T04:22:13.275Z,47.03
2019-01-23T04:24:43.714Z,42.47
2019-01-23T04:27:15.564Z,45.47
2019-01-23T04:29:45.950Z,48.43
2019-01-23T04:32:16.295Z,46.28
2019-01-23T04:34:47.735Z,46.30
2019-01-23T04:37:18.054Z,45.73
2019-01-23T04:39:48.501Z,40.73
2019-01-23T04:42:18.818Z,45.75
2019-01-23T04:44:50.899Z,44.53
2019-01-23T04:47:21.361Z,44.95
2019-01-23T04:49:52.867Z,48.68
2019-01-23T04:52:40.993Z,46.23
2019-01-23T04:55:11.521Z,44.38
2019-01-23T04:57:41.827Z,46.25
2019-01-23T05:00:14.115Z,39.77
2019-01-23T05:02:44.496Z,47.33
2019-01-23T05:05:14.760Z,48.07
2019-01-23T05:07:46.357Z,44.13
2019-01-23T05:10:19.959Z,48.28
2019-01-23T05:12:50.378Z,47.93
2019-01-23T05:15:23.092Z,45.12
2019-01-23T05:17:54.926Z,49.53
2019-01-23T05:20:25.307Z,46.98
2019-01-23T05:22:55.676Z,43.57
2019-01-23T05:25:41.458Z,45.50
2019-01-23T05:28:11.898Z,39.67
2019-01-23T05:30:48.201Z,48.67
2019-01-23T05:33:18.506Z,44.77
2019-01-23T05:35:51.253Z,51.53
2019-01-23T05:38:21.835Z,48.33
2019-01-23T05:40:54.563Z,47.73
2019-01-23T05:45:32.939Z,48.55
2019-01-23T05:47:38.626Z,47.20
2019-01-23T05:53:24.253Z,48.37
2019-01-23T05:56:03.276Z,46.70
2019-01-23T05:59:15.879Z,45.37
2019-01-23T06:01:46.451Z,44.03
2019-01-23T06:04:19.660Z,45.48
2019-01-23T06:06:50.289Z,46.93
2019-01-23T06:09:26.421Z,50.07
2019-01-23T06:12:00.089Z,50.90
2019-01-23T06:14:30.981Z,51.63
2019-01-23T06:17:01.689Z,48.37
2019-01-23T06:19:45.056Z,51.48
2019-01-23T06:22:07.502Z,50.08
2019-01-23T06:24:42.614Z,43.93
2019-01-23T06:27:13.220Z,47.83
2019-01-23T06:29:46.867Z,51.13
2019-01-23T06:32:25.026Z,48.45
2019-01-23T06:35:01.444Z,46.87
2019-01-23T06:37:31.628Z,49.77
2019-01-23T06:41:05.042Z,51.05
2019-01-23T06:43:50.153Z,50.23
2019-01-23T06:47:16.296Z,49.63
2019-01-23T06:54:06.086Z,51.70
2019-01-23T06:57:16.444Z,48.80
2019-01-23T06:59:58.753Z,48.63
2019-01-23T07:02:30.966Z,50.13
2019-01-23T07:05:13.527Z,52.07
2019-01-23T07:07:53.606Z,50.80
2019-01-23T07:10:30.268Z,46.70
2019-01-23T07:13:02.967Z,49.93
2019-01-23T07:15:44.313Z,49.07
2019-01-23T07:18:17.206Z,45.55
2019-01-23T07:20:49.958Z,50.43
2019-01-23T07:23:21.958Z,51.17
2019-01-23T07:25:52.370Z,48.83
2019-01-23T07:28:25.374Z,53.60
2019-01-23T07:30:57.010Z,50.43
2019-01-23T07:33:27.601Z,51.20
2019-01-23T07:35:58.130Z,46.40
2019-01-23T07:38:28.557Z,54.20
2019-01-23T07:41:16.552Z,51.03
2019-01-23T07:43:57.200Z,50.83
2019-01-23T07:46:40.544Z,49.37
2019-01-23T07:49:13.198Z,47.17
2019-01-23T07:52:10.802Z,51.93
2019-01-23T07:54:41.317Z,47.20
2019-01-23T07:57:44.336Z,51.00
2019-01-23T08:00:44.801Z,53.33
2019-01-23T08:03:18.197Z,51.63
2019-01-23T08:05:48.860Z,52.57
2019-01-23T08:08:20.536Z,48.70
2019-01-23T08:11:00.827Z,57.98
2019-01-23T08:13:47.268Z,47.80
2019-01-23T08:16:32.927Z,51.73
2019-01-23T08:19:25.029Z,52.10
2019-01-23T08:21:51.179Z,50.77
2019-01-23T08:24:21.689Z,51.37
2019-01-23T08:26:57.824Z,49.97
2019-01-23T08:32:41.225Z,60.93
2019-01-23T08:35:32.878Z,59.67
2019-01-23T08:39:04.754Z,57.57
2019-01-23T08:41:37.888Z,55.67
2019-01-23T08:44:11.165Z,50.67
2019-01-23T08:46:41.689Z,50.37
2019-01-23T08:50:22.136Z,48.63
2019-01-23T08:53:03.290Z,51.73
2019-01-23T08:55:42.853Z,50.43
2019-01-23T08:58:26.069Z,49.65
2019-01-23T09:01:32.114Z,52.17
2019-01-23T09:04:28.593Z,54.93
2019-01-23T09:07:08.934Z,53.57
2019-01-23T09:09:54.252Z,50.40
2019-01-23T09:12:28.567Z,50.05
2019-01-23T09:18:49.784Z,51.87
2019-01-23T09:21:33.454Z,48.63
2019-01-23T09:24:22.908Z,51.27
2019-01-23T09:26:59.451Z,54.27
2019-01-23T09:29:38.880Z,54.47
2019-01-23T09:33:14.526Z,51.80
2019-01-23T09:36:13.009Z,50.47
2019-01-23T09:39:45.958Z,51.60
2019-01-23T09:43:09.640Z,55.60
2019-01-23T09:46:40.805Z,56.03
2019-01-23T09:50:04.720Z,48.90
2019-01-23T09:53:36.434Z,47.17
2019-01-23T09:56:29.724Z,46.13
2019-01-23T10:12:33.985Z,44.97
2019-01-23T10:15:14.003Z,46.23
2019-01-23T10:17:51.094Z,44.03
2019-01-23T10:20:26.352Z,46.33
2019-01-23T10:23:30.503Z,48.33
2019-01-23T10:26:30.190Z,46.17
2019-01-23T10:29:13.896Z,46.47
2019-01-23T10:31:47.438Z,44.73
2019-01-23T10:34:21.052Z,49.27
2019-01-23T10:37:02.406Z,47.37
2019-01-23T10:39:37.081Z,47.77
2019-01-23T10:42:22.138Z,48.77
2019-01-23T10:45:01.078Z,46.67
2019-01-23T10:47:46.884Z,46.03
2019-01-23T10:50:20.766Z,47.53
2019-01-23T10:54:15.265Z,45.93
2019-01-23T10:56:25.077Z,43.40
2019-01-23T10:59:05.201Z,41.00
2019-01-23T11:01:40.730Z,44.57
2019-01-23T11:04:58.847Z,45.33
2019-01-23T11:07:33.290Z,43.57
2019-01-23T11:10:40.906Z,46.73
2019-01-23T11:13:13.772Z,42.53
2019-01-23T11:15:49.875Z,45.13
2019-01-23T11:18:31.510Z,42.83
2019-01-23T11:21:02.050Z,46.57
2019-01-23T11:23:36.877Z,43.37
2019-01-23T11:26:10.604Z,44.83
2019-01-23T11:28:44.951Z,43.55
2019-01-23T11:31:29.765Z,45.25
2019-01-23T11:34:14.124Z,43.33
2019-01-23T11:36:46.345Z,45.10
2019-01-23T11:39:19.806Z,45.17
2019-01-23T11:41:50.265Z,42.63
2019-01-23T11:44:20.737Z,42.93
2019-01-23T11:46:53.326Z,42.83
2019-01-23T11:49:25.735Z,40.58
2019-01-23T11:51:57.552Z,42.47
2019-01-23T11:54:28.245Z,42.57
2019-01-23T11:56:58.528Z,41.57
2019-01-23T11:59:30.103Z,40.60
2019-01-23T12:02:06.763Z,42.30
2019-01-23T12:04:38.573Z,44.37
2019-01-23T12:07:12.861Z,43.83
2019-01-23T12:09:43.925Z,45.50
2019-01-23T12:12:17.011Z,41.80
2019-01-23T12:14:47.517Z,41.70
2019-01-23T12:17:24.792Z,40.57
2019-01-23T12:20:00.017Z,39.63
2019-01-23T12:22:38.317Z,38.73
2019-01-23T12:25:12.556Z,42.27
2019-01-23T12:27:48.367Z,41.80
2019-01-23T12:30:26.369Z,40.67
2019-01-23T12:32:56.956Z,39.40
2019-01-23T12:35:32.408Z,36.70
2019-01-23T12:38:02.807Z,40.90
2019-01-23T12:40:33.094Z,40.37
2019-01-23T12:43:03.604Z,41.17
2019-01-23T12:45:33.999Z,39.23
2019-01-23T12:48:04.562Z,40.33
2019-01-23T12:50:42.498Z,40.47
2019-01-23T12:54:11.854Z,40.35
2019-01-23T12:57:27.864Z,38.30
2019-01-23T13:00:05.395Z,37.43
2019-01-23T13:05:26.468Z,37.43
2019-01-23T13:08:45.573Z,40.27
2019-01-23T13:11:32.053Z,38.47
2019-01-23T13:14:33.994Z,40.03
2019-01-23T13:17:13.783Z,37.23
2019-01-23T13:19:44.548Z,40.40
2019-01-23T13:22:39.331Z,40.50
2019-01-23T13:26:16.793Z,40.83
2019-01-23T13:29:17.118Z,38.97
2019-01-23T13:32:01.892Z,38.50
2019-01-23T13:35:04.090Z,40.67
2019-01-23T13:37:39.821Z,39.83
2019-01-23T13:40:37.524Z,42.50
2019-01-23T13:43:07.020Z,39.47
2019-01-23T13:45:37.832Z,38.30
2019-01-23T13:48:10.186Z,42.10
2019-01-23T13:50:42.900Z,38.10
2019-01-23T13:53:24.648Z,41.18
2019-01-23T13:56:09.648Z,38.87
2019-01-23T13:58:45.664Z,39.17
2019-01-23T14:01:16.247Z,40.37
2019-01-23T14:03:47.757Z,40.67
2019-01-23T14:06:18.089Z,39.90
2019-01-23T14:08:51.631Z,41.63
2019-01-23T14:11:22.080Z,37.93
2019-01-23T14:13:52.470Z,41.00
2019-01-23T14:16:22.897Z,39.97
2019-01-23T14:18:53.556Z,39.53
2019-01-23T14:21:23.948Z,38.48
2019-01-23T14:23:54.494Z,38.70
2019-01-23T14:26:24.763Z,41.17
2019-01-23T14:28:56.828Z,38.43
2019-01-23T14:31:27.179Z,40.10
2019-01-23T14:33:59.143Z,38.67
2019-01-23T14:36:29.721Z,38.20
2019-01-23T14:39:01.663Z,40.20
2019-01-23T14:41:34.843Z,39.55
2019-01-23T14:44:05.731Z,38.83
2019-01-23T14:46:39.151Z,40.95
2019-01-23T14:49:09.837Z,41.40
2019-01-23T14:51:44.636Z,40.97
2019-01-23T14:54:15.237Z,41.60
2019-01-23T14:56:47.625Z,40.60
2019-01-23T14:59:20.724Z,36.00
2019-01-23T15:01:53.690Z,40.07
2019-01-23T15:04:26.656Z,40.78
2019-01-23T15:06:58.491Z,41.20
2019-01-23T15:09:28.712Z,35.63
2019-01-23T15:11:59.076Z,37.77
2019-01-23T15:14:29.491Z,39.93
2019-01-23T15:16:59.832Z,39.73
2019-01-23T15:19:30.201Z,40.00
2019-01-23T15:22:00.617Z,39.33
2019-01-23T15:24:32.706Z,38.93
2019-01-23T15:27:03.229Z,40.93
2019-01-23T15:29:34.947Z,40.13
2019-01-23T15:32:08.386Z,39.77
2019-01-23T15:34:38.780Z,37.13
2019-01-23T15:37:10.232Z,40.88
2019-01-23T15:39:40.706Z,40.80
2019-01-23T15:42:11.047Z,39.67
2019-01-23T15:44:41.269Z,36.30
2019-01-23T15:47:11.792Z,40.35
2019-01-23T15:49:44.134Z,42.43
2019-01-23T15:52:14.551Z,40.47
2019-01-23T15:54:47.943Z,41.17
2019-01-23T15:57:18.242Z,37.47
2019-01-23T15:59:48.482Z,44.03
2019-01-23T16:02:24.288Z,40.93
2019-01-23T16:04:53.680Z,42.20
2019-01-23T16:07:24.077Z,38.13
2019-01-23T16:09:57.220Z,41.93
2019-01-23T16:12:28.912Z,39.07
2019-01-23T16:14:59.435Z,43.33
2019-01-23T16:17:29.822Z,38.23
2019-01-23T16:20:00.208Z,42.58
2019-01-23T16:22:33.475Z,41.70
2019-01-23T16:25:06.558Z,42.00
2019-01-23T16:27:47.349Z,44.93
2019-01-23T16:30:42.656Z,41.83
2019-01-23T16:33:12.879Z,42.23
2019-01-23T16:35:43.345Z,42.23
2019-01-23T16:38:16.590Z,40.53
2019-01-23T16:40:46.973Z,43.70
2019-01-23T16:43:19.558Z,44.37
2019-01-23T16:45:50.995Z,46.17
2019-01-23T16:48:21.296Z,43.15
2019-01-23T16:50:51.652Z,44.27
2019-01-23T16:53:22.073Z,44.83
2019-01-23T16:55:52.260Z,42.77
2019-01-23T16:58:41.997Z,43.20
2019-01-23T17:01:12.254Z,44.87
2019-01-23T17:03:42.695Z,42.63
2019-01-23T17:06:13.042Z,42.47
2019-01-23T17:08:43.344Z,44.57
2019-01-23T17:11:13.620Z,39.20
2019-01-23T17:13:43.927Z,46.07
2019-01-23T17:16:14.224Z,44.50
2019-01-23T17:18:44.433Z,40.90
2019-01-23T17:21:14.752Z,47.10
2019-01-23T17:23:45.220Z,41.57
2019-01-23T17:26:15.812Z,43.68
2019-01-23T17:28:46.663Z,44.17
2019-01-23T17:31:33.743Z,44.50
2019-01-23T17:34:04.494Z,41.15
2019-01-23T17:36:35.011Z,47.63
2019-01-23T17:39:09.649Z,44.57
2019-01-23T17:41:40.189Z,44.57
2019-01-23T17:44:11.007Z,46.13
2019-01-23T17:46:41.736Z,42.20
2019-01-23T17:49:12.254Z,42.53
2019-01-23T17:51:42.787Z,43.28
2019-01-23T17:54:12.984Z,46.57
2019-01-23T17:56:43.336Z,41.87
2019-01-23T17:59:13.762Z,46.47
2019-01-23T18:01:44.019Z,46.02
2019-01-23T18:04:14.328Z,43.33
2019-01-23T18:06:44.615Z,46.23
2019-01-23T18:09:14.922Z,44.97
2019-01-23T18:11:45.217Z,41.10
2019-01-23T18:14:15.551Z,43.25
2019-01-23T18:16:45.745Z,47.00
2019-01-23T18:19:16.066Z,44.80
2019-01-23T18:21:46.392Z,44.10
2019-01-23T18:24:16.835Z,45.87
2019-01-23T18:26:47.187Z,48.77
2019-01-23T18:29:17.544Z,47.87
2019-01-23T18:31:56.521Z,44.77
2019-01-23T18:35:32.017Z,45.17
2019-01-23T18:38:34.034Z,40.17
2019-01-23T18:42:01.406Z,41.50
2019-01-23T18:45:11.595Z,40.87
2019-01-23T18:48:25.731Z,44.20
2019-01-23T18:51:44.918Z,42.17
2019-01-23T18:54:15.196Z,44.97
2019-01-23T18:56:45.633Z,41.57
2019-01-23T18:59:16.018Z,42.53
2019-01-23T19:01:46.370Z,44.60
2019-01-23T19:04:16.730Z,43.27
2019-01-23T19:06:47.104Z,41.57
2019-01-23T19:09:17.357Z,42.10
2019-01-23T19:11:47.682Z,43.90
2019-01-23T19:14:24.267Z,45.25
2019-01-23T19:16:50.029Z,41.17
2019-01-23T19:19:20.360Z,47.00
2019-01-23T19:21:55.077Z,40.83
2019-01-23T19:24:22.661Z,45.30
2019-01-23T19:26:53.019Z,43.67
2019-01-23T19:29:23.408Z,46.50
2019-01-23T19:31:55.517Z,41.43
2019-01-23T19:34:26.079Z,44.83
2019-01-23T19:36:56.362Z,43.43
2019-01-23T19:39:26.968Z,45.97
2019-01-23T19:41:57.663Z,40.57
2019-01-23T19:44:28.290Z,43.27
2019-01-23T19:46:58.658Z,40.63
2019-01-23T19:49:29.246Z,46.33
2019-01-23T19:51:59.762Z,42.13
2019-01-23T19:54:30.520Z,40.73
2019-01-23T19:57:04.644Z,47.63
2019-01-23T19:59:35.285Z,44.87
2019-01-23T20:02:05.845Z,43.13
2019-01-23T20:04:36.354Z,44.33
2019-01-23T20:07:07.265Z,40.45
2019-01-23T20:09:37.728Z,46.13
2019-01-23T20:12:08.541Z,43.97
2019-01-23T20:14:40.771Z,42.77
2019-01-23T20:17:11.515Z,49.23
2019-01-23T20:19:42.068Z,45.77
2019-01-23T20:22:12.838Z,47.40
2019-01-23T20:24:43.438Z,47.20
2019-01-23T20:27:13.980Z,46.80
2019-01-23T20:29:44.509Z,40.83
2019-01-23T20:32:15.034Z,45.47
2019-01-23T20:34:45.672Z,40.57
2019-01-23T20:37:16.297Z,44.77
2019-01-23T20:39:46.859Z,45.77
2019-01-23T20:42:17.410Z,46.33
2019-01-23T20:44:48.013Z,42.83
2019-01-23T20:47:18.715Z,46.77
2019-01-23T20:49:50.433Z,43.53
2019-01-23T20:52:21.032Z,47.67
2019-01-23T20:54:51.972Z,49.40
2019-01-23T20:57:24.328Z,44.10
2019-01-23T20:59:54.871Z,45.07
2019-01-23T21:02:25.466Z,49.00
2019-01-23T21:04:56.104Z,46.60
2019-01-23T21:07:26.754Z,46.50
2019-01-23T21:10:00.248Z,43.85
2019-01-23T21:12:30.726Z,49.13
2019-01-23T21:15:01.211Z,48.77
2019-01-23T21:17:31.683Z,47.67
2019-01-23T21:20:02.327Z,43.43
2019-01-23T21:22:32.900Z,48.77
2019-01-23T21:25:03.449Z,47.83
2019-01-23T21:27:34.068Z,47.27
2019-01-23T21:30:05.431Z,48.60
2019-01-23T21:32:35.778Z,44.10
2019-01-23T21:35:06.512Z,44.87
2019-01-23T21:37:36.769Z,48.60
2019-01-23T21:40:12.910Z,45.17
2019-01-23T21:42:43.158Z,47.30
2019-01-23T21:45:13.985Z,43.20
2019-01-23T21:47:44.393Z,46.57
2019-01-23T21:50:17.932Z,46.67
2019-01-23T21:52:48.284Z,42.40
2019-01-23T21:55:21.158Z,49.63
2019-01-23T21:57:51.981Z,47.13
2019-01-23T22:00:32.422Z,43.60
2019-01-23T22:03:02.996Z,47.47
2019-01-23T22:05:33.330Z,49.10
2019-01-23T22:08:03.738Z,47.90
2019-01-23T22:10:34.176Z,48.20
2019-01-23T22:13:04.587Z,48.87
2019-01-23T22:15:35.035Z,46.67
2019-01-23T22:18:07.486Z,47.63
2019-01-23T22:20:37.810Z,49.87
2019-01-23T22:23:08.113Z,48.57
2019-01-23T22:25:38.529Z,48.23
2019-01-23T22:28:09.132Z,45.33
2019-01-23T22:30:39.434Z,46.23
2019-01-23T22:33:09.708Z,46.37
2019-01-23T22:35:39.959Z,49.98
2019-01-23T22:38:10.291Z,45.57
2019-01-23T22:40:40.552Z,49.50
2019-01-23T22:43:15.008Z,50.00
2019-01-23T22:45:42.819Z,49.98
2019-01-23T22:48:13.017Z,50.17
2019-01-23T22:50:43.238Z,50.73
2019-01-23T22:53:13.539Z,51.25
2019-01-23T22:55:43.780Z,45.43
2019-01-23T22:58:14.034Z,50.07
2019-01-23T23:01:10.745Z,48.63
2019-01-23T23:03:41.004Z,48.13
2019-01-23T23:06:11.348Z,50.10
2019-01-23T23:08:41.628Z,52.47
2019-01-23T23:11:11.984Z,51.03
2019-01-23T23:13:42.250Z,51.10
2019-01-23T23:16:12.509Z,48.70
2019-01-23T23:18:49.846Z,51.33
2019-01-23T23:21:20.121Z,48.20
2019-01-23T23:23:50.378Z,47.93
2019-01-23T23:26:20.826Z,48.25
2019-01-23T23:28:51.140Z,51.73
2019-01-23T23:31:21.295Z,54.40
2019-01-23T23:33:51.524Z,53.70
2019-01-23T23:36:21.626Z,52.05
2019-01-23T23:38:51.853Z,50.87
2019-01-23T23:41:22.205Z,48.57
2019-01-23T23:43:52.448Z,47.90
2019-01-23T23:46:25.506Z,55.28
2019-01-23T23:48:55.694Z,49.67
2019-01-23T23:51:25.977Z,54.57
2019-01-23T23:53:56.195Z,50.27
2019-01-23T23:56:26.414Z,51.20
2019-01-23T23:58:56.637Z,52.33
